Time;durP1;ratioP1;P1;durP2;ratioP2;P2;SDS_P1;SDS_P2;PMS_P1;PMS_P2;Temp;Humidity;BMP_temperature;BMP_pressure;BME280_temperature;BME280_humidity;BME280_pressure;Samples;Min_cycle;Max_cycle;Signal;HPM_P1;HPM_P2
2022/01/30 00:01:41;;;;;;;26.67;11.70;;;;;;;-1.94;60.30;100384.56;126372;1099;104382;-79
2022/01/30 00:04:15;;;;;;;26.70;12.77;;;;;;;-1.93;58.89;100382.13;126280;1099;104172;-78
2022/01/30 00:06:47;;;;;;;26.43;11.03;;;;;;;-1.93;60.10;100379.55;126326;1099;104201;-78
2022/01/30 00:09:21;;;;;;;25.47;9.43;;;;;;;-1.94;60.02;100371.70;126309;1099;104152;-79
2022/01/30 00:11:57;;;;;;;22.40;9.60;;;;;;;-1.96;59.14;100363.86;126347;1099;104306;-79
2022/01/30 00:14:33;;;;;;;28.00;10.10;;;;;;;-1.95;59.93;100349.32;126255;1099;104261;-80
2022/01/30 00:17:11;;;;;;;20.73;8.67;;;;;;;-1.95;59.57;100347.64;126260;1099;107688;-79
2022/01/30 00:19:46;;;;;;;23.47;9.87;;;;;;;-1.96;59.66;100335.58;126168;1099;104143;-79
2022/01/30 00:22:25;;;;;;;24.87;9.07;;;;;;;-1.94;59.68;100333.13;126191;1099;104181;-77
2022/01/30 00:25:06;;;;;;;23.37;8.73;;;;;;;-1.92;59.96;100318.72;126182;1099;104153;-78
2022/01/30 00:27:48;;;;;;;21.50;8.80;;;;;;;-1.91;59.87;100302.52;126179;1099;104184;-78
2022/01/30 00:30:21;;;;;;;29.33;9.43;;;;;;;-1.90;59.88;100299.16;126148;1099;104226;-78
2022/01/30 00:32:52;;;;;;;21.13;7.90;;;;;;;-1.90;59.73;100287.22;126176;1099;104155;-77
2022/01/30 00:35:24;;;;;;;20.60;7.67;;;;;;;-1.88;60.33;100285.66;126238;1099;104172;-78
2022/01/30 00:37:55;;;;;;;22.30;7.97;;;;;;;-1.84;59.95;100279.08;126374;1099;104216;-78
2022/01/30 00:40:26;;;;;;;19.67;7.70;;;;;;;-1.83;59.78;100271.48;126307;1099;104153;-78
2022/01/30 00:43:00;;;;;;;23.63;8.20;;;;;;;-1.77;59.81;100272.78;126265;1099;104382;-78
2022/01/30 00:45:34;;;;;;;21.80;8.43;;;;;;;-1.74;59.32;100270.45;126239;1099;104203;-79
2022/01/30 00:48:08;;;;;;;20.17;7.87;;;;;;;-1.73;60.13;100265.44;126286;1099;104143;-79
2022/01/30 00:50:42;;;;;;;22.15;8.33;;;;;;;-1.72;60.79;100262.06;126292;1099;104200;-79
2022/01/30 00:53:17;;;;;;;21.90;8.00;;;;;;;-1.71;59.52;100266.45;126236;1099;104230;-79
2022/01/30 00:55:49;;;;;;;22.33;8.17;;;;;;;-1.70;59.90;100268.25;126235;1099;104146;-79
2022/01/30 00:58:22;;;;;;;21.73;7.87;;;;;;;-1.71;60.10;100268.13;126278;1097;104156;-79
2022/01/30 01:00:54;;;;;;;22.53;8.27;;;;;;;-1.76;60.31;100277.13;126252;1099;104149;-79
2022/01/30 01:03:25;;;;;;;21.10;8.20;;;;;;;-1.76;60.16;100267.76;126359;1099;104178;-79
2022/01/30 01:05:58;;;;;;;17.47;7.13;;;;;;;-1.79;60.48;100256.30;126260;1099;105551;-79
2022/01/30 01:08:34;;;;;;;19.80;7.35;;;;;;;-1.81;59.56;100254.52;126247;1099;104246;-79
2022/01/30 01:11:27;;;;;;;22.40;8.13;;;;;;;-1.84;60.30;100243.06;126227;1099;104140;-79
2022/01/30 01:20:49;;;;;;;22.83;7.70;;;;;;;-1.89;60.46;100240.13;126289;1099;104140;-78
2022/01/30 01:25:28;;;;;;;17.23;7.00;;;;;;;-1.96;60.04;100183.84;126283;1099;104152;-79
2022/01/30 01:28:00;;;;;;;18.50;6.90;;;;;;;-1.94;60.83;100179.72;126289;1099;104201;-78
2022/01/30 01:30:31;;;;;;;18.50;7.37;;;;;;;-1.95;60.40;100165.05;126344;1099;104175;-78
2022/01/30 01:33:03;;;;;;;20.00;6.90;;;;;;;-1.92;59.48;100162.72;126312;1099;104332;-78
2022/01/30 01:35:36;;;;;;;17.47;6.10;;;;;;;-1.89;59.76;100162.08;126284;1099;104611;-79
2022/01/30 01:38:11;;;;;;;20.57;7.10;;;;;;;-1.91;60.11;100151.67;126238;1099;104159;-79
2022/01/30 01:40:50;;;;;;;15.37;6.07;;;;;;;-1.90;60.37;100143.19;126301;1099;104146;-79
2022/01/30 01:43:26;;;;;;;15.70;6.67;;;;;;;-1.89;60.44;100144.96;126321;1099;104149;-78
2022/01/30 01:46:00;;;;;;;16.27;6.67;;;;;;;-1.86;59.82;100136.61;126342;1099;104297;-79
2022/01/30 01:48:35;;;;;;;15.37;5.83;;;;;;;-1.84;60.29;100137.61;126200;1099;102036;-79
2022/01/30 01:51:14;;;;;;;17.73;6.60;;;;;;;-1.83;60.11;100134.27;126224;1099;104676;-79
2022/01/30 01:53:47;;;;;;;21.00;6.70;;;;;;;-1.79;60.08;100130.26;126283;1099;104149;-79
2022/01/30 01:56:20;;;;;;;15.47;6.13;;;;;;;-1.77;60.22;100126.16;126292;1099;104153;-79
2022/01/30 01:59:08;;;;;;;15.93;6.20;;;;;;;-1.79;60.51;100117.40;126214;1098;118556;-79
2022/01/30 02:02:01;;;;;;;16.77;6.63;;;;;;;-1.80;59.96;100108.80;126238;1099;104274;-79
2022/01/30 02:04:33;;;;;;;15.90;5.47;;;;;;;-1.82;60.24;100098.39;126247;1099;104219;-79
2022/01/30 02:07:31;;;;;;;14.87;5.87;;;;;;;-1.83;59.97;100094.01;126264;1099;104173;-79
2022/01/30 02:10:06;;;;;;;16.03;5.30;;;;;;;-1.83;60.34;100085.41;126245;1099;102917;-78
2022/01/30 02:12:46;;;;;;;14.03;6.00;;;;;;;-1.83;59.67;100072.55;126311;1099;104291;-79
2022/01/30 02:15:43;;;;;;;15.67;5.93;;;;;;;-1.83;59.87;100063.14;126269;1099;104220;-78
2022/01/30 02:24:03;;;;;;;15.33;6.03;;;;;;;-1.81;59.06;100032.40;126272;1099;104143;-78
2022/01/30 02:26:43;;;;;;;12.57;5.13;;;;;;;-1.78;60.37;100031.75;126299;1099;104783;-78
2022/01/30 02:29:15;;;;;;;13.07;5.57;;;;;;;-1.76;60.09;100025.03;126275;1099;104152;-78
2022/01/30 02:31:47;;;;;;;13.37;4.93;;;;;;;-1.74;59.93;100015.78;126315;1099;104236;-79
2022/01/30 02:34:21;;;;;;;13.43;4.77;;;;;;;-1.72;59.50;100021.93;126290;1099;104252;-78
2022/01/30 02:36:53;;;;;;;16.93;5.40;;;;;;;-1.72;59.62;100020.24;126265;1099;104137;-78
2022/01/30 02:39:26;;;;;;;10.83;5.00;;;;;;;-1.68;59.42;100024.86;126234;1099;104204;-78
2022/01/30 02:41:58;;;;;;;15.87;5.70;;;;;;;-1.66;59.33;100009.53;126295;1099;104251;-78
2022/01/30 02:44:37;;;;;;;16.30;5.50;;;;;;;-1.67;60.06;100003.51;126351;1099;104172;-78
2022/01/30 02:47:23;;;;;;;12.97;5.60;;;;;;;-1.66;59.46;99988.95;126298;1099;104169;-78
2022/01/30 02:50:12;;;;;;;15.63;5.57;;;;;;;-1.66;58.76;99989.84;126244;1099;104687;-78
2022/01/30 02:52:54;;;;;;;13.77;5.10;;;;;;;-1.65;59.70;99989.07;126333;1099;104309;-78
2022/01/30 02:55:25;;;;;;;12.23;5.03;;;;;;;-1.63;58.71;99989.19;126235;1099;104229;-79
2022/01/30 02:57:57;;;;;;;13.30;4.97;;;;;;;-1.61;59.50;99973.87;126343;1099;104166;-78
2022/01/30 03:00:29;;;;;;;12.63;5.00;;;;;;;-1.60;58.98;99968.84;126265;1099;102948;-78
2022/01/30 03:03:00;;;;;;;14.50;5.63;;;;;;;-1.56;59.33;99969.95;126373;1099;104284;-78
2022/01/30 03:05:32;;;;;;;14.47;5.43;;;;;;;-1.55;59.22;99954.63;126330;1099;104287;-77
2022/01/30 03:08:04;;;;;;;14.00;5.13;;;;;;;-1.53;59.62;99944.45;126280;1099;104219;-78
2022/01/30 03:10:35;;;;;;;10.57;4.77;;;;;;;-1.51;59.40;99937.73;126257;1099;104513;-78
2022/01/30 03:13:07;;;;;;;11.97;4.93;;;;;;;-1.50;59.29;99922.41;126246;1099;104152;-78
2022/01/30 03:15:38;;;;;;;13.17;5.60;;;;;;;-1.46;58.61;99920.98;126339;1099;104217;-78
2022/01/30 03:18:10;;;;;;;10.43;5.07;;;;;;;-1.45;58.62;99904.73;126276;1099;104794;-78
2022/01/30 03:20:42;;;;;;;11.13;4.90;;;;;;;-1.43;59.27;99902.27;125248;1099;104185;-78
2022/01/30 03:23:14;;;;;;;11.67;5.13;;;;;;;-1.41;58.74;99888.75;125425;1099;104175;-78
2022/01/30 03:25:46;;;;;;;11.20;4.80;;;;;;;-1.37;59.15;99892.42;125401;1099;104290;-78
2022/01/30 03:28:45;;;;;;;11.20;4.97;;;;;;;-1.34;58.81;99879.78;125809;1099;104168;-78
2022/01/30 03:31:27;;;;;;;13.08;4.55;;;;;;;-1.32;58.62;99879.13;125230;1102;120013;-78
2022/01/30 03:34:00;;;;;;;12.80;4.33;;;;;;;-1.28;58.91;99867.36;125269;1101;104428;-78
2022/01/30 03:36:43;;;;;;;10.83;4.70;;;;;;;-1.24;58.86;99863.34;125252;1102;104213;-78
2022/01/30 03:39:15;;;;;;;12.20;5.03;;;;;;;-1.20;59.00;99865.34;125270;1102;104188;-78
2022/01/30 03:41:46;;;;;;;9.87;4.13;;;;;;;-1.18;57.95;99864.67;125251;1102;104194;-78
2022/01/30 03:44:20;;;;;;;10.70;4.37;;;;;;;-1.16;58.68;99873.39;125286;1102;104185;-78
2022/01/30 03:46:51;;;;;;;11.37;4.70;;;;;;;-1.13;58.88;99863.31;125244;1102;104307;-79
2022/01/30 03:49:22;;;;;;;13.47;4.73;;;;;;;-1.10;59.31;99858.38;125308;1102;104303;-80
2022/01/30 03:51:54;;;;;;;10.07;4.30;;;;;;;-1.06;59.20;99854.38;125215;1100;111694;-77
2022/01/30 03:54:36;;;;;;;10.77;4.30;;;;;;;-1.01;59.28;99849.52;125314;1099;104251;-79
2022/01/30 03:57:09;;;;;;;12.50;4.30;;;;;;;-1.00;58.70;99838.44;125316;1099;104284;-78
2022/01/30 03:59:41;;;;;;;10.63;4.50;;;;;;;-0.96;58.58;99840.45;125243;1099;104213;-78
2022/01/30 04:02:12;;;;;;;11.23;4.37;;;;;;;-0.95;58.31;99837.99;125206;1102;104303;-79
2022/01/30 04:04:44;;;;;;;10.93;4.17;;;;;;;-0.92;58.49;99839.87;126172;1099;104213;-79
2022/01/30 04:07:16;;;;;;;11.07;4.23;;;;;;;-0.89;58.32;99841.77;125662;1099;104223;-78
2022/01/30 04:10:08;;;;;;;11.70;4.27;;;;;;;-0.85;58.26;99841.22;126200;1099;104181;-79
2022/01/30 04:12:49;;;;;;;13.00;4.60;;;;;;;-0.82;58.79;99836.28;126178;1099;106548;-78
2022/01/30 04:15:44;;;;;;;10.90;4.07;;;;;;;-0.80;58.29;99838.16;125282;1099;104232;-78
2022/01/30 04:18:25;;;;;;;11.30;4.80;;;;;;;-0.77;58.67;99840.06;126154;1099;105203;-78
2022/01/30 04:21:16;;;;;;;13.77;4.70;;;;;;;-0.75;59.17;99836.81;126073;1099;104376;-79
2022/01/30 04:24:08;;;;;;;12.17;4.57;;;;;;;-0.73;59.45;99813.73;126149;1099;104178;-78
2022/01/30 04:26:58;;;;;;;11.13;4.33;;;;;;;-0.75;58.81;99802.41;126154;1099;104265;-78
2022/01/30 04:29:43;;;;;;;12.73;4.62;;;;;;;-0.75;58.64;99787.87;125666;1099;104300;-79
2022/01/30 04:32:43;;;;;;;13.77;4.90;;;;;;;-0.76;59.05;99782.61;125720;1099;104265;-78
2022/01/30 04:35:30;;;;;;;10.90;4.47;;;;;;;-0.77;59.57;99773.08;126312;1099;104179;-78
2022/01/30 04:38:40;;;;;;;9.37;4.10;;;;;;;-0.79;59.69;99752.36;126117;1099;104200;-78
2022/01/30 04:42:00;;;;;;;11.37;4.03;;;;;;;-0.77;59.66;99747.31;126233;1099;104272;-78
2022/01/30 04:58:00;;;;;;;9.27;3.57;;;;;;;-0.63;59.54;99718.22;126157;1099;104249;-78
2022/01/30 05:01:06;;;;;;;8.43;3.87;;;;;;;-0.59;58.87;99720.23;126322;1099;104245;-78
2022/01/30 05:04:00;;;;;;;7.97;3.70;;;;;;;-0.56;59.68;99727.28;126269;1099;111674;-78
2022/01/30 05:10:13;;;;;;;8.73;3.53;;;;;;;-0.53;59.59;99704.30;125840;1099;104383;-78
2022/01/30 05:13:14;;;;;;;9.93;4.00;;;;;;;-0.50;59.14;99704.47;126293;1099;104172;-78
2022/01/30 05:16:04;;;;;;;9.03;3.92;;;;;;;-0.49;60.23;99705.38;126255;1099;104175;-78
2022/01/30 05:19:00;;;;;;;8.17;3.70;;;;;;;-0.48;59.52;99710.64;125641;1099;104188;-79
2022/01/30 05:21:44;;;;;;;10.37;3.77;;;;;;;-0.45;59.16;99702.20;126071;1099;104149;-79
2022/01/30 05:24:21;;;;;;;8.73;3.70;;;;;;;-0.43;59.82;99701.52;125910;1099;120372;-79
2022/01/30 05:27:04;;;;;;;8.27;3.37;;;;;;;-0.39;59.48;99707.76;126025;1099;104262;-78
2022/01/30 05:29:55;;;;;;;9.77;3.90;;;;;;;-0.37;60.13;99706.20;126018;1099;104143;-79
2022/01/30 05:32:50;;;;;;;10.30;4.00;;;;;;;-0.33;60.04;99702.13;125885;1099;104267;-80
2022/01/30 05:35:43;;;;;;;;;;;;;;;-0.33;60.37;99694.39;126112;1099;104249;-80
2022/01/30 05:38:34;;;;;;;10.07;3.93;;;;;;;-0.32;59.99;99693.61;126222;1098;104181;-79
2022/01/30 05:41:26;;;;;;;9.27;3.70;;;;;;;-0.30;60.24;99697.17;125685;1099;104162;-79
2022/01/30 05:44:21;;;;;;;11.60;4.23;;;;;;;-0.30;59.96;99692.02;126256;1098;104152;-79
2022/01/30 05:47:21;;;;;;;12.27;4.10;;;;;;;-0.29;59.84;99688.66;126332;1099;104159;-78
2022/01/30 05:50:09;;;;;;;10.87;4.30;;;;;;;-0.28;60.00;99693.00;126337;1099;104243;-78
2022/01/30 05:52:44;;;;;;;8.65;3.90;;;;;;;-0.29;60.51;99688.66;126333;1099;104188;-79
2022/01/30 05:55:18;;;;;;;11.83;4.20;;;;;;;-0.29;60.51;99693.81;126279;1099;104672;-78
2022/01/30 05:57:50;;;;;;;11.53;3.90;;;;;;;-0.29;60.96;99683.50;126213;1099;104222;-79
2022/01/30 06:00:26;;;;;;;10.87;4.10;;;;;;;-0.28;60.68;99682.69;126311;1099;104226;-79
2022/01/30 06:03:02;;;;;;;10.47;3.77;;;;;;;-0.30;61.62;99661.08;126248;1099;104194;-78
2022/01/30 06:05:33;;;;;;;10.27;4.17;;;;;;;-0.36;61.38;99643.52;126292;1099;104319;-79
2022/01/30 06:08:12;;;;;;;9.90;4.50;;;;;;;-0.42;61.71;99646.61;126330;1099;104295;-78
2022/01/30 06:10:43;;;;;;;9.57;3.77;;;;;;;-0.47;62.50;99635.08;126278;1099;104274;-77
2022/01/30 06:13:15;;;;;;;7.43;3.63;;;;;;;-0.51;62.74;99651.16;126291;1099;104576;-78
2022/01/30 06:15:47;;;;;;;9.70;3.70;;;;;;;-0.53;61.99;99652.75;126297;1099;104233;-78
2022/01/30 06:18:23;;;;;;;11.50;3.80;;;;;;;-0.55;62.56;99646.58;126317;1099;104213;-78
2022/01/30 06:21:12;;;;;;;9.43;4.00;;;;;;;-0.55;63.21;99638.84;126256;1099;104249;-78
2022/01/30 06:23:52;;;;;;;9.65;3.85;;;;;;;-0.55;63.15;99632.03;126237;1098;104169;-79
2022/01/30 06:26:42;;;;;;;8.90;3.80;;;;;;;-0.54;62.18;99635.48;126182;1099;104143;-80
2022/01/30 06:29:32;;;;;;;10.50;4.23;;;;;;;-0.52;63.56;99636.47;126229;1099;104338;-79
2022/01/30 06:32:22;;;;;;;8.43;4.23;;;;;;;-0.49;63.46;99634.09;126249;1099;104156;-79
2022/01/30 06:35:31;;;;;;;9.63;3.97;;;;;;;-0.45;62.65;99630.94;125728;1099;104143;-77
2022/01/30 06:38:25;;;;;;;9.60;4.10;;;;;;;-0.39;63.35;99628.77;126104;1098;104223;-77
2022/01/30 06:41:15;;;;;;;8.33;3.83;;;;;;;-0.36;63.42;99620.31;126274;1099;104977;-76
2022/01/30 06:44:08;;;;;;;12.07;3.57;;;;;;;-0.32;63.14;99626.59;126316;1099;104165;-76
2022/01/30 06:47:00;;;;;;;9.58;4.00;;;;;;;-0.26;63.07;99626.98;126339;1099;104201;-77
2022/01/30 06:49:41;;;;;;;9.07;4.10;;;;;;;-0.24;63.70;99631.42;126310;1099;104162;-78
2022/01/30 06:52:12;;;;;;;12.27;4.57;;;;;;;-0.20;63.04;99645.42;126351;1099;104178;-78
2022/01/30 06:55:03;;;;;;;7.80;4.00;;;;;;;-0.16;63.35;99636.19;126220;1099;104160;-79
2022/01/30 06:57:54;;;;;;;14.77;5.83;;;;;;;-0.10;63.16;99623.69;126229;1099;104309;-79
2022/01/30 07:00:45;;;;;;;15.13;5.10;;;;;;;-0.03;63.29;99615.56;126149;1099;104175;-78
2022/01/30 07:03:50;;;;;;;11.47;4.67;;;;;;;0.03;63.95;99615.04;126079;1099;104197;-78
2022/01/30 07:06:42;;;;;;;10.68;4.42;;;;;;;0.09;63.74;99611.15;125645;1099;104302;-79
2022/01/30 07:09:14;;;;;;;14.37;5.87;;;;;;;0.15;63.62;99605.49;126198;1099;104214;-79
2022/01/30 07:11:47;;;;;;;13.13;4.83;;;;;;;0.20;63.22;99598.92;126258;1099;104254;-78
2022/01/30 07:14:21;;;;;;;17.32;5.05;;;;;;;0.20;63.52;99598.92;126310;1098;104229;-78
2022/01/30 07:16:52;;;;;;;;;;;;;;;0.20;65.27;99588.59;126270;1098;104297;-77
2022/01/30 07:19:24;;;;;;;10.90;4.17;;;;;;;0.20;63.59;99588.59;126334;1099;104143;-79
2022/01/30 07:21:56;;;;;;;10.00;4.00;;;;;;;0.18;63.91;99582.46;126297;1099;104281;-78
2022/01/30 07:24:27;;;;;;;10.77;4.37;;;;;;;0.16;64.12;99571.17;126337;1099;104249;-79
2022/01/30 07:26:59;;;;;;;10.40;4.27;;;;;;;0.13;64.19;99566.70;126255;1099;104307;-78
2022/01/30 07:29:30;;;;;;;12.97;4.60;;;;;;;0.12;64.07;99549.42;126088;1099;104246;-79
2022/01/30 07:32:02;;;;;;;9.67;3.77;;;;;;;0.13;64.98;99555.50;126259;1099;104246;-79
2022/01/30 07:34:34;;;;;;;7.97;4.43;;;;;;;0.12;64.66;99553.70;126280;1097;104156;-79
2022/01/30 07:37:06;;;;;;;8.20;4.20;;;;;;;0.14;64.39;99557.26;126220;1099;104229;-78
2022/01/30 07:39:39;;;;;;;9.08;4.30;;;;;;;0.15;64.68;99566.80;126249;1099;104162;-80
2022/01/30 07:42:11;;;;;;;11.63;4.67;;;;;;;0.19;64.97;99563.62;126225;1099;104727;-79
2022/01/30 07:44:43;;;;;;;10.83;4.27;;;;;;;0.24;65.05;99558.74;126292;1099;104198;-79
2022/01/30 07:47:14;;;;;;;8.30;4.20;;;;;;;0.28;66.21;99555.53;126212;1099;104224;-79
2022/01/30 07:49:51;;;;;;;11.33;4.73;;;;;;;0.29;64.53;99555.62;126272;1099;104146;-79
2022/01/30 07:52:25;;;;;;;11.47;4.57;;;;;;;0.31;65.15;99543.73;126298;1099;104332;-80
2022/01/30 07:54:56;;;;;;;9.67;4.47;;;;;;;0.35;64.54;99524.15;126284;1099;104325;-78
2022/01/30 07:57:28;;;;;;;8.87;4.30;;;;;;;0.35;65.70;99496.64;126279;1099;104216;-78
2022/01/30 08:00:00;;;;;;;10.77;4.30;;;;;;;0.40;65.31;99498.62;126339;1099;104252;-78
2022/01/30 08:02:32;;;;;;;11.33;5.27;;;;;;;0.46;64.95;99486.08;126301;1099;104181;-79
2022/01/30 08:05:03;;;;;;;11.80;4.57;;;;;;;0.53;65.24;99488.20;126252;1099;104290;-79
2022/01/30 08:07:34;;;;;;;12.23;5.03;;;;;;;0.62;65.98;99481.00;126333;1099;104223;-79
2022/01/30 08:10:07;;;;;;;11.23;5.23;;;;;;;0.66;65.35;99477.81;126333;1099;104225;-78
2022/01/30 08:12:39;;;;;;;10.23;5.20;;;;;;;0.76;65.67;99491.27;126262;1099;104245;-80
2022/01/30 08:15:11;;;;;;;9.70;4.33;;;;;;;0.84;65.57;99497.75;126236;1098;104354;-79
2022/01/30 08:17:43;;;;;;;9.77;4.70;;;;;;;0.87;65.90;99501.43;126272;1099;104222;-78
2022/01/30 08:20:15;;;;;;;11.60;5.13;;;;;;;0.89;65.23;99501.52;126209;1099;104268;-78
2022/01/30 08:22:49;;;;;;;12.13;5.43;;;;;;;0.93;65.74;99497.41;126371;1099;104158;-78
2022/01/30 08:25:22;;;;;;;15.08;5.45;;;;;;;0.98;65.45;99496.89;126302;1099;104319;-78
2022/01/30 08:27:55;;;;;;;12.50;5.10;;;;;;;1.07;65.48;99497.37;126284;1099;104249;-78
2022/01/30 08:30:27;;;;;;;12.67;5.53;;;;;;;1.10;66.37;99490.63;126326;1099;104145;-77
2022/01/30 08:32:59;;;;;;;10.27;4.97;;;;;;;1.13;66.12;99488.22;126312;1099;104615;-78
2022/01/30 08:35:31;;;;;;;12.37;4.83;;;;;;;1.20;65.78;99490.33;126368;1099;104149;-78
2022/01/30 08:38:10;;;;;;;10.60;5.47;;;;;;;1.28;65.54;99480.42;126222;1099;104184;-79
2022/01/30 08:40:41;;;;;;;10.90;5.00;;;;;;;1.36;65.85;99477.48;126332;1099;104205;-77
2022/01/30 08:43:13;;;;;;;14.80;5.93;;;;;;;1.40;65.68;99474.27;126350;1099;104172;-78
2022/01/30 08:45:45;;;;;;;11.03;4.80;;;;;;;1.44;65.66;99472.73;126297;1099;104174;-78
2022/01/30 08:48:16;;;;;;;13.10;5.83;;;;;;;1.47;65.96;99472.91;126283;1099;104242;-78
2022/01/30 08:50:49;;;;;;;11.53;5.10;;;;;;;1.53;65.52;99454.27;126256;1099;104299;-78
2022/01/30 08:53:20;;;;;;;12.07;5.33;;;;;;;1.54;66.29;99464.70;126335;1099;104198;-79
2022/01/30 08:55:52;;;;;;;12.40;5.65;;;;;;;1.57;65.73;99458.78;126356;1099;104232;-79
2022/01/30 08:58:24;;;;;;;16.23;6.37;;;;;;;1.59;65.91;99472.67;126218;1099;104147;-78
2022/01/30 09:00:56;;;;;;;13.90;5.70;;;;;;;1.57;66.05;99471.70;126329;1099;104220;-79
2022/01/30 09:03:28;;;;;;;11.90;5.30;;;;;;;1.51;66.51;99461.94;126267;1099;104181;-78
2022/01/30 09:05:59;;;;;;;11.63;5.30;;;;;;;1.44;66.47;99458.11;126345;1099;104811;-78
2022/01/30 09:08:31;;;;;;;10.00;5.10;;;;;;;1.41;66.13;99463.11;126196;1099;104147;-78
2022/01/30 09:11:02;;;;;;;10.83;5.13;;;;;;;1.42;66.63;99461.43;126285;1099;104277;-77
2022/01/30 09:13:34;;;;;;;9.90;4.73;;;;;;;1.50;66.10;99459.27;126298;1099;104227;-78
2022/01/30 09:16:06;;;;;;;10.93;5.13;;;;;;;1.61;66.27;99453.86;126257;1099;104611;-78
2022/01/30 09:18:38;;;;;;;12.83;5.23;;;;;;;1.73;66.33;99451.06;126295;1099;104174;-78
2022/01/30 09:21:09;;;;;;;13.47;5.43;;;;;;;1.97;65.86;99450.59;126304;1099;104271;-77
2022/01/30 09:23:40;;;;;;;11.10;5.20;;;;;;;2.09;66.78;99438.30;126285;1099;101802;-77
2022/01/30 09:26:12;;;;;;;12.33;5.50;;;;;;;2.19;66.10;99438.77;126357;1098;104156;-77
2022/01/30 09:28:43;;;;;;;11.30;5.10;;;;;;;2.33;66.14;99430.02;126245;1099;104181;-78
2022/01/30 09:31:15;;;;;;;11.13;5.00;;;;;;;2.48;66.25;99423.03;126368;1099;104204;-77
2022/01/30 09:33:47;;;;;;;11.13;4.97;;;;;;;2.61;66.13;99421.05;126277;1099;104145;-78
2022/01/30 09:36:18;;;;;;;17.03;6.07;;;;;;;2.70;66.39;99419.80;126318;1099;104334;-78
2022/01/30 09:38:50;;;;;;;15.13;5.23;;;;;;;2.78;66.41;99409.82;126281;1099;104143;-78
2022/01/30 09:41:24;;;;;;;13.43;5.30;;;;;;;2.88;66.14;99401.70;126345;1099;104169;-77
2022/01/30 09:43:55;;;;;;;;;;;;;;;2.99;66.30;99398.72;126370;1099;104182;-78
2022/01/30 09:46:28;;;;;;;16.13;4.87;;;;;;;3.10;65.57;99387.18;126357;1099;104306;-78
2022/01/30 09:49:01;;;;;;;13.00;4.90;;;;;;;3.21;66.28;99380.80;126268;1099;104287;-77
2022/01/30 09:51:34;;;;;;;9.87;4.80;;;;;;;3.34;66.20;99369.28;126314;1098;104226;-78
2022/01/30 09:54:06;;;;;;;11.70;5.00;;;;;;;3.48;65.68;99372.51;126318;1099;104139;-77
2022/01/30 09:56:38;;;;;;;10.43;4.50;;;;;;;3.62;66.36;99361.88;126369;1099;104255;-77
2022/01/30 09:59:10;;;;;;;11.07;4.73;;;;;;;3.74;65.47;99358.13;126281;1099;104277;-77
2022/01/30 10:01:42;;;;;;;13.37;5.30;;;;;;;3.69;65.67;99349.22;126320;1099;104278;-78
2022/01/30 10:04:13;;;;;;;9.45;4.60;;;;;;;3.81;66.22;99348.89;126232;1099;104175;-78
2022/01/30 10:06:58;;;;;;;9.23;4.67;;;;;;;3.91;65.27;99353.69;126306;1099;104184;-77
2022/01/30 10:09:33;;;;;;;11.30;4.70;;;;;;;4.03;65.85;99353.31;126286;1098;104191;-77
2022/01/30 10:12:14;;;;;;;11.47;5.00;;;;;;;4.12;65.32;99340.73;126312;1099;104297;-78
2022/01/30 10:15:05;;;;;;;10.53;4.97;;;;;;;4.25;65.09;99336.93;126292;1099;104200;-77
2022/01/30 10:17:42;;;;;;;8.90;4.10;;;;;;;4.36;65.61;99329.59;126339;1099;104281;-77
2022/01/30 10:20:15;;;;;;;9.90;4.60;;;;;;;4.45;64.82;99331.70;126131;1099;104201;-77
2022/01/30 10:22:55;;;;;;;10.95;4.60;;;;;;;4.52;65.22;99332.83;126347;1099;104150;-77
2022/01/30 10:25:28;;;;;;;9.40;4.37;;;;;;;4.56;65.14;99338.21;126331;1099;104166;-77
2022/01/30 10:28:12;;;;;;;8.45;4.28;;;;;;;4.61;64.86;99331.52;126359;1099;104140;-76
2022/01/30 10:30:46;;;;;;;8.25;4.20;;;;;;;4.66;64.52;99337.77;126292;1099;104201;-77
2022/01/30 10:33:20;;;;;;;9.25;4.40;;;;;;;4.68;64.36;99327.44;126264;1099;104204;-77
2022/01/30 10:35:56;;;;;;;10.33;4.73;;;;;;;4.75;64.43;99318.17;126342;1099;104144;-78
2022/01/30 10:38:30;;;;;;;8.50;4.37;;;;;;;4.83;65.19;99316.75;126333;1098;104156;-76
2022/01/30 10:41:11;;;;;;;10.43;4.73;;;;;;;4.91;64.12;99310.17;126271;1099;107885;-77
2022/01/30 10:43:55;;;;;;;9.35;4.40;;;;;;;4.99;64.77;99316.54;126277;1099;104147;-76
2022/01/30 10:46:28;;;;;;;11.15;4.80;;;;;;;5.03;64.37;99317.53;126295;1099;104210;-78
2022/01/30 10:49:02;;;;;;;9.80;4.40;;;;;;;5.08;64.86;99312.52;126305;1099;104258;-77
2022/01/30 10:51:34;;;;;;;9.37;4.40;;;;;;;5.08;63.99;99312.52;126334;1099;117803;-77
2022/01/30 10:54:10;;;;;;;11.30;4.93;;;;;;;5.04;64.31;99304.59;126317;1099;104204;-77
2022/01/30 10:56:43;;;;;;;8.70;4.27;;;;;;;5.00;64.39;99289.73;126375;1099;105288;-76
2022/01/30 10:59:17;;;;;;;8.45;4.10;;;;;;;4.99;64.21;99287.95;126270;1099;104175;-78
2022/01/30 11:01:51;;;;;;;10.53;4.80;;;;;;;5.02;64.11;99281.98;126293;1099;104149;-77
2022/01/30 11:04:35;;;;;;;8.30;4.30;;;;;;;5.06;64.62;99273.45;126375;1099;104316;-77
2022/01/30 11:07:10;;;;;;;9.27;4.63;;;;;;;5.06;64.18;99273.45;126337;1099;104147;-77
2022/01/30 11:09:44;;;;;;;;;;;;;;;5.04;63.88;99286.39;126177;1099;104153;-77
2022/01/30 11:12:18;;;;;;;8.83;4.47;;;;;;;5.03;63.83;99286.34;126094;1099;104277;-76
2022/01/30 11:15:04;;;;;;;12.85;5.00;;;;;;;5.03;64.40;99286.34;126138;1099;104626;-77
2022/01/30 11:17:35;;;;;;;11.07;5.00;;;;;;;5.04;64.18;99291.59;126152;1099;104153;-77
2022/01/30 11:20:09;;;;;;;12.50;5.20;;;;;;;5.04;64.04;99289.00;126091;1099;104144;-78
2022/01/30 11:22:47;;;;;;;9.30;4.40;;;;;;;5.10;64.37;99290.08;126131;1099;104245;-77
2022/01/30 11:25:25;;;;;;;10.20;4.50;;;;;;;5.07;63.99;99285.64;126355;1099;104149;-76
2022/01/30 11:28:01;;;;;;;7.58;4.60;;;;;;;5.06;63.62;99285.58;126353;1099;104156;-77
2022/01/30 11:30:35;;;;;;;10.27;4.50;;;;;;;5.04;64.24;99276.00;126294;1099;105625;-78
2022/01/30 11:33:07;;;;;;;10.13;5.17;;;;;;;5.07;64.08;99274.36;126339;1099;104144;-77
2022/01/30 11:35:38;;;;;;;9.20;4.90;;;;;;;5.10;63.92;99282.28;126294;1099;104226;-77
2022/01/30 11:38:10;;;;;;;11.37;4.87;;;;;;;5.11;64.22;99281.43;126340;1098;104193;-76
2022/01/30 11:40:42;;;;;;;10.20;4.70;;;;;;;5.10;63.76;99287.48;126282;1099;104197;-77
2022/01/30 11:43:17;;;;;;;14.67;5.43;;;;;;;5.08;64.18;99268.31;126355;1099;104592;-77
2022/01/30 11:46:16;;;;;;;12.10;5.10;;;;;;;5.06;63.93;99262.18;126326;1099;104605;-77
2022/01/30 11:49:13;;;;;;;12.57;5.57;;;;;;;5.00;64.08;99268.92;126359;1099;104268;-78
2022/01/30 11:51:55;;;;;;;13.77;5.37;;;;;;;4.95;64.22;99254.84;126291;1099;104211;-77
2022/01/30 11:54:38;;;;;;;13.07;5.60;;;;;;;4.93;63.52;99268.63;126366;1099;104144;-77
2022/01/30 11:57:48;;;;;;;11.43;5.50;;;;;;;4.93;63.47;99268.63;126351;1099;104152;-78
2022/01/30 12:00:40;;;;;;;10.00;4.63;;;;;;;4.95;63.80;99275.64;126316;1099;104612;-76
2022/01/30 12:03:29;;;;;;;9.87;5.07;;;;;;;4.96;63.79;99281.75;126311;1098;104143;-78
2022/01/30 12:06:31;;;;;;;10.17;4.90;;;;;;;4.97;64.10;99284.41;126366;1098;104284;-77
2022/01/30 12:09:19;;;;;;;11.07;5.27;;;;;;;4.99;63.89;99279.27;126322;1098;104143;-77
2022/01/30 12:11:55;;;;;;;11.27;5.07;;;;;;;5.01;64.12;99265.48;126290;1099;104290;-78
2022/01/30 12:14:59;;;;;;;11.33;5.27;;;;;;;5.03;63.82;99245.64;126353;1099;104162;-76
2022/01/30 12:17:51;;;;;;;13.17;5.73;;;;;;;5.04;63.56;99228.32;126279;1099;104210;-78
2022/01/30 12:20:24;;;;;;;10.10;5.17;;;;;;;5.01;63.59;99218.68;126154;1099;104236;-77
2022/01/30 12:22:57;;;;;;;11.43;5.05;;;;;;;4.99;63.48;99219.47;126245;1099;104175;-78
2022/01/30 12:25:39;;;;;;;10.33;5.50;;;;;;;4.99;64.00;99219.47;126320;1099;104364;-77
2022/01/30 12:28:13;;;;;;;15.60;5.70;;;;;;;5.00;64.00;99216.94;126258;1099;104172;-77
2022/01/30 12:30:51;;;;;;;;;;;;;;;5.01;63.88;99210.00;126304;1099;104172;-78
2022/01/30 12:33:39;;;;;;;11.13;5.10;;;;;;;5.00;63.31;99216.94;126184;1099;104249;-78
2022/01/30 12:36:20;;;;;;;13.30;5.57;;;;;;;5.00;63.99;99213.42;126321;1099;104156;-78